sensor_id;sensor_type;location;lat;lon;timestamp;P1;durP1;ratioP1;P2;durP2;ratioP2
495;SDS011;39559;48.630;9.162;2023-01-29T00:02:00;13.80;;;10.73;;
495;SDS011;39559;48.630;9.162;2023-01-29T00:04:27;13.65;;;9.88;;
495;SDS011;39559;48.630;9.162;2023-01-29T00:06:53;15.10;;;10.80;;
495;SDS011;39559;48.630;9.162;2023-01-29T00:09:18;13.93;;;10.20;;
495;SDS011;39559;48.630;9.162;2023-01-29T00:13:54;14.95;;;10.80;;
495;SDS011;39559;48.630;9.162;2023-01-29T00:16:19;12.63;;;10.07;;
495;SDS011;39559;48.630;9.162;2023-01-29T00:18:45;14.10;;;10.90;;
495;SDS011;39559;48.630;9.162;2023-01-29T00:21:14;13.30;;;9.63;;
495;SDS011;39559;48.630;9.162;2023-01-29T00:23:41;15.82;;;10.13;;
495;SDS011;39559;48.630;9.162;2023-01-29T00:26:08;17.55;;;10.75;;
495;SDS011;39559;48.630;9.162;2023-01-29T00:28:34;14.68;;;10.40;;
495;SDS011;39559;48.630;9.162;2023-01-29T00:31:07;13.73;;;9.68;;
495;SDS011;39559;48.630;9.162;2023-01-29T00:33:37;14.93;;;10.80;;
495;SDS011;39559;48.630;9.162;2023-01-29T00:37:56;17.67;;;11.63;;
495;SDS011;39559;48.630;9.162;2023-01-29T00:40:22;15.85;;;11.43;;
495;SDS011;39559;48.630;9.162;2023-01-29T00:42:48;16.47;;;11.10;;
495;SDS011;39559;48.630;9.162;2023-01-29T00:45:33;12.63;;;9.77;;
495;SDS011;39559;48.630;9.162;2023-01-29T00:48:01;15.48;;;11.15;;
495;SDS011;39559;48.630;9.162;2023-01-29T00:50:28;13.75;;;9.75;;
495;SDS011;39559;48.630;9.162;2023-01-29T00:52:54;13.85;;;10.45;;
495;SDS011;39559;48.630;9.162;2023-01-29T00:55:20;15.03;;;10.13;;
495;SDS011;39559;48.630;9.162;2023-01-29T00:57:46;15.47;;;10.70;;
495;SDS011;39559;48.630;9.162;2023-01-29T01:01:57;15.85;;;10.95;;
495;SDS011;39559;48.630;9.162;2023-01-29T01:04:41;16.10;;;11.00;;
495;SDS011;39559;48.630;9.162;2023-01-29T01:07:07;17.80;;;11.60;;
495;SDS011;39559;48.630;9.162;2023-01-29T01:09:35;13.83;;;10.40;;
495;SDS011;39559;48.630;9.162;2023-01-29T01:12:20;14.35;;;10.65;;
495;SDS011;39559;48.630;9.162;2023-01-29T01:14:45;16.00;;;10.80;;
495;SDS011;39559;48.630;9.162;2023-01-29T01:17:11;13.02;;;9.98;;
495;SDS011;39559;48.630;9.162;2023-01-29T01:19:37;14.10;;;10.60;;
495;SDS011;39559;48.630;9.162;2023-01-29T01:22:02;15.03;;;10.83;;
495;SDS011;39559;48.630;9.162;2023-01-29T01:25:59;15.43;;;10.23;;
495;SDS011;39559;48.630;9.162;2023-01-29T01:28:25;15.60;;;11.63;;
495;SDS011;39559;48.630;9.162;2023-01-29T01:30:52;13.50;;;10.48;;
495;SDS011;39559;48.630;9.162;2023-01-29T01:33:18;14.07;;;10.05;;
495;SDS011;39559;48.630;9.162;2023-01-29T01:35:44;12.80;;;10.50;;
495;SDS011;39559;48.630;9.162;2023-01-29T01:38:09;14.50;;;10.90;;
495;SDS011;39559;48.630;9.162;2023-01-29T01:40:35;15.43;;;10.00;;
495;SDS011;39559;48.630;9.162;2023-01-29T01:43:01;15.20;;;11.13;;
495;SDS011;39559;48.630;9.162;2023-01-29T01:50:08;15.10;;;10.82;;
495;SDS011;39559;48.630;9.162;2023-01-29T01:52:41;15.55;;;10.68;;
495;SDS011;39559;48.630;9.162;2023-01-29T01:55:12;17.20;;;10.90;;
495;SDS011;39559;48.630;9.162;2023-01-29T01:57:40;14.15;;;10.70;;
495;SDS011;39559;48.630;9.162;2023-01-29T02:00:11;16.70;;;10.93;;
495;SDS011;39559;48.630;9.162;2023-01-29T02:02:40;14.48;;;10.73;;
495;SDS011;39559;48.630;9.162;2023-01-29T02:05:27;15.00;;;10.50;;
495;SDS011;39559;48.630;9.162;2023-01-29T02:08:12;12.68;;;10.20;;
495;SDS011;39559;48.630;9.162;2023-01-29T02:10:58;12.95;;;10.35;;
495;SDS011;39559;48.630;9.162;2023-01-29T02:14:03;16.70;;;10.52;;
495;SDS011;39559;48.630;9.162;2023-01-29T02:16:29;15.47;;;10.00;;
495;SDS011;39559;48.630;9.162;2023-01-29T02:18:54;11.50;;;9.00;;
495;SDS011;39559;48.630;9.162;2023-01-29T02:32:26;14.10;;;10.10;;
495;SDS011;39559;48.630;9.162;2023-01-29T02:40:57;13.32;;;10.27;;
495;SDS011;39559;48.630;9.162;2023-01-29T02:43:29;13.00;;;10.45;;
495;SDS011;39559;48.630;9.162;2023-01-29T02:48:33;13.10;;;9.88;;
495;SDS011;39559;48.630;9.162;2023-01-29T02:51:06;11.18;;;9.18;;
495;SDS011;39559;48.630;9.162;2023-01-29T02:53:40;13.60;;;9.35;;
495;SDS011;39559;48.630;9.162;2023-01-29T02:56:15;13.38;;;9.50;;
495;SDS011;39559;48.630;9.162;2023-01-29T02:59:24;14.60;;;9.77;;
495;SDS011;39559;48.630;9.162;2023-01-29T03:02:09;11.65;;;8.85;;
495;SDS011;39559;48.630;9.162;2023-01-29T03:04:42;13.43;;;9.10;;
495;SDS011;39559;48.630;9.162;2023-01-29T03:07:45;11.23;;;8.77;;
495;SDS011;39559;48.630;9.162;2023-01-29T03:12:45;13.45;;;9.65;;
495;SDS011;39559;48.630;9.162;2023-01-29T03:15:19;11.18;;;8.90;;
495;SDS011;39559;48.630;9.162;2023-01-29T03:17:53;11.43;;;8.48;;
495;SDS011;39559;48.630;9.162;2023-01-29T03:20:31;10.23;;;8.32;;
495;SDS011;39559;48.630;9.162;2023-01-29T03:23:09;12.35;;;9.02;;
495;SDS011;39559;48.630;9.162;2023-01-29T03:26:09;11.52;;;9.40;;
495;SDS011;39559;48.630;9.162;2023-01-29T03:28:55;12.18;;;8.73;;
495;SDS011;39559;48.630;9.162;2023-01-29T03:31:41;12.43;;;8.77;;
495;SDS011;39559;48.630;9.162;2023-01-29T03:34:26;10.77;;;8.50;;
495;SDS011;39559;48.630;9.162;2023-01-29T03:37:03;11.27;;;8.70;;
495;SDS011;39559;48.630;9.162;2023-01-29T03:39:33;11.57;;;8.85;;
495;SDS011;39559;48.630;9.162;2023-01-29T03:55:27;11.32;;;8.38;;
495;SDS011;39559;48.630;9.162;2023-01-29T04:01:02;11.68;;;8.48;;
495;SDS011;39559;48.630;9.162;2023-01-29T04:03:55;10.23;;;8.80;;
495;SDS011;39559;48.630;9.162;2023-01-29T04:06:29;12.85;;;9.00;;
495;SDS011;39559;48.630;9.162;2023-01-29T04:09:03;11.18;;;8.27;;
495;SDS011;39559;48.630;9.162;2023-01-29T04:11:35;13.57;;;8.38;;
495;SDS011;39559;48.630;9.162;2023-01-29T04:14:12;10.80;;;8.70;;
495;SDS011;39559;48.630;9.162;2023-01-29T04:16:43;10.32;;;8.43;;
495;SDS011;39559;48.630;9.162;2023-01-29T04:19:16;12.10;;;8.77;;
495;SDS011;39559;48.630;9.162;2023-01-29T04:21:42;13.27;;;9.60;;
495;SDS011;39559;48.630;9.162;2023-01-29T04:24:08;9.23;;;7.97;;
495;SDS011;39559;48.630;9.162;2023-01-29T04:26:44;13.60;;;9.48;;
495;SDS011;39559;48.630;9.162;2023-01-29T04:29:37;10.65;;;8.57;;
495;SDS011;39559;48.630;9.162;2023-01-29T04:34:44;14.63;;;9.83;;
495;SDS011;39559;48.630;9.162;2023-01-29T04:41:23;11.50;;;8.10;;
495;SDS011;39559;48.630;9.162;2023-01-29T04:52:33;11.43;;;8.48;;
495;SDS011;39559;48.630;9.162;2023-01-29T04:55:08;10.90;;;8.25;;
495;SDS011;39559;48.630;9.162;2023-01-29T05:02:16;12.20;;;8.65;;
495;SDS011;39559;48.630;9.162;2023-01-29T05:04:45;13.63;;;9.25;;
495;SDS011;39559;48.630;9.162;2023-01-29T05:07:13;12.65;;;9.55;;
495;SDS011;39559;48.630;9.162;2023-01-29T05:09:39;13.90;;;9.20;;
495;SDS011;39559;48.630;9.162;2023-01-29T05:12:09;13.27;;;9.65;;
495;SDS011;39559;48.630;9.162;2023-01-29T05:14:35;12.65;;;9.50;;
495;SDS011;39559;48.630;9.162;2023-01-29T05:17:04;12.35;;;9.10;;
495;SDS011;39559;48.630;9.162;2023-01-29T05:19:36;12.15;;;9.63;;
495;SDS011;39559;48.630;9.162;2023-01-29T05:22:03;11.67;;;8.70;;
495;SDS011;39559;48.630;9.162;2023-01-29T05:26:18;10.38;;;8.07;;
495;SDS011;39559;48.630;9.162;2023-01-29T05:29:03;11.95;;;9.55;;
495;SDS011;39559;48.630;9.162;2023-01-29T05:31:29;10.70;;;9.53;;
495;SDS011;39559;48.630;9.162;2023-01-29T05:33:54;10.30;;;8.17;;
495;SDS011;39559;48.630;9.162;2023-01-29T05:36:20;11.70;;;9.00;;
495;SDS011;39559;48.630;9.162;2023-01-29T05:38:45;11.50;;;9.00;;
495;SDS011;39559;48.630;9.162;2023-01-29T05:41:11;13.30;;;9.33;;
495;SDS011;39559;48.630;9.162;2023-01-29T05:43:36;11.50;;;9.53;;
495;SDS011;39559;48.630;9.162;2023-01-29T05:46:02;15.03;;;10.10;;
495;SDS011;39559;48.630;9.162;2023-01-29T05:50:20;12.30;;;9.23;;
495;SDS011;39559;48.630;9.162;2023-01-29T05:52:46;13.40;;;9.00;;
495;SDS011;39559;48.630;9.162;2023-01-29T05:55:11;13.53;;;9.70;;
495;SDS011;39559;48.630;9.162;2023-01-29T05:57:38;13.07;;;9.40;;
495;SDS011;39559;48.630;9.162;2023-01-29T06:00:04;12.00;;;9.30;;
495;SDS011;39559;48.630;9.162;2023-01-29T06:02:31;14.68;;;10.07;;
495;SDS011;39559;48.630;9.162;2023-01-29T06:04:56;14.00;;;10.10;;
495;SDS011;39559;48.630;9.162;2023-01-29T06:07:22;11.20;;;9.70;;
495;SDS011;39559;48.630;9.162;2023-01-29T06:09:47;13.20;;;9.80;;
495;SDS011;39559;48.630;9.162;2023-01-29T06:14:22;12.60;;;8.95;;
495;SDS011;39559;48.630;9.162;2023-01-29T06:16:48;13.53;;;9.73;;
495;SDS011;39559;48.630;9.162;2023-01-29T06:19:13;12.73;;;9.60;;
495;SDS011;39559;48.630;9.162;2023-01-29T06:21:39;13.93;;;10.30;;
495;SDS011;39559;48.630;9.162;2023-01-29T06:24:04;12.97;;;10.07;;
495;SDS011;39559;48.630;9.162;2023-01-29T06:26:30;13.97;;;10.67;;
495;SDS011;39559;48.630;9.162;2023-01-29T06:28:56;11.93;;;9.70;;
495;SDS011;39559;48.630;9.162;2023-01-29T06:31:21;13.87;;;10.17;;
495;SDS011;39559;48.630;9.162;2023-01-29T06:33:47;14.80;;;10.53;;
495;SDS011;39559;48.630;9.162;2023-01-29T06:38:24;10.75;;;8.80;;
495;SDS011;39559;48.630;9.162;2023-01-29T06:40:53;15.43;;;11.18;;
495;SDS011;39559;48.630;9.162;2023-01-29T06:43:19;14.38;;;11.60;;
495;SDS011;39559;48.630;9.162;2023-01-29T06:45:47;14.52;;;11.13;;
495;SDS011;39559;48.630;9.162;2023-01-29T06:48:16;14.57;;;11.02;;
495;SDS011;39559;48.630;9.162;2023-01-29T06:50:42;13.90;;;10.35;;
495;SDS011;39559;48.630;9.162;2023-01-29T06:53:08;18.30;;;10.80;;
495;SDS011;39559;48.630;9.162;2023-01-29T06:55:34;15.23;;;11.53;;
495;SDS011;39559;48.630;9.162;2023-01-29T06:58:03;12.40;;;11.00;;
495;SDS011;39559;48.630;9.162;2023-01-29T07:02:26;12.77;;;9.45;;
495;SDS011;39559;48.630;9.162;2023-01-29T07:04:52;15.30;;;8.57;;
495;SDS011;39559;48.630;9.162;2023-01-29T07:07:17;13.20;;;9.07;;
495;SDS011;39559;48.630;9.162;2023-01-29T07:09:43;12.50;;;8.53;;
495;SDS011;39559;48.630;9.162;2023-01-29T07:12:09;9.87;;;8.07;;
495;SDS011;39559;48.630;9.162;2023-01-29T07:14:35;10.50;;;7.13;;
495;SDS011;39559;48.630;9.162;2023-01-29T07:17:00;11.73;;;7.80;;
495;SDS011;39559;48.630;9.162;2023-01-29T07:19:26;9.83;;;7.63;;
495;SDS011;39559;48.630;9.162;2023-01-29T07:21:51;9.20;;;6.87;;
495;SDS011;39559;48.630;9.162;2023-01-29T07:26:28;9.98;;;6.85;;
495;SDS011;39559;48.630;9.162;2023-01-29T07:28:54;13.30;;;8.33;;
495;SDS011;39559;48.630;9.162;2023-01-29T07:31:19;10.70;;;7.93;;
495;SDS011;39559;48.630;9.162;2023-01-29T07:33:45;11.33;;;7.90;;
495;SDS011;39559;48.630;9.162;2023-01-29T07:36:11;9.93;;;7.90;;
495;SDS011;39559;48.630;9.162;2023-01-29T07:38:37;11.15;;;7.50;;
495;SDS011;39559;48.630;9.162;2023-01-29T07:41:02;10.10;;;7.47;;
495;SDS011;39559;48.630;9.162;2023-01-29T07:43:28;12.60;;;8.93;;
495;SDS011;39559;48.630;9.162;2023-01-29T07:45:54;10.23;;;7.63;;
495;SDS011;39559;48.630;9.162;2023-01-29T07:50:31;10.50;;;7.10;;
495;SDS011;39559;48.630;9.162;2023-01-29T07:52:58;10.20;;;7.85;;
495;SDS011;39559;48.630;9.162;2023-01-29T07:55:25;9.60;;;6.90;;
495;SDS011;39559;48.630;9.162;2023-01-29T07:57:54;10.50;;;6.80;;
495;SDS011;39559;48.630;9.162;2023-01-29T08:00:20;7.85;;;7.00;;
495;SDS011;39559;48.630;9.162;2023-01-29T08:02:46;7.47;;;5.80;;
495;SDS011;39559;48.630;9.162;2023-01-29T08:05:11;6.67;;;5.97;;
495;SDS011;39559;48.630;9.162;2023-01-29T08:07:37;10.13;;;6.63;;
495;SDS011;39559;48.630;9.162;2023-01-29T08:10:03;9.20;;;6.13;;
495;SDS011;39559;48.630;9.162;2023-01-29T08:14:32;8.45;;;7.03;;
495;SDS011;39559;48.630;9.162;2023-01-29T08:16:58;7.10;;;6.17;;
495;SDS011;39559;48.630;9.162;2023-01-29T08:19:23;7.57;;;6.07;;
495;SDS011;39559;48.630;9.162;2023-01-29T08:21:49;6.57;;;5.97;;
495;SDS011;39559;48.630;9.162;2023-01-29T08:24:14;6.10;;;5.50;;
495;SDS011;39559;48.630;9.162;2023-01-29T08:26:40;8.47;;;6.57;;
495;SDS011;39559;48.630;9.162;2023-01-29T08:29:05;6.33;;;5.67;;
495;SDS011;39559;48.630;9.162;2023-01-29T08:31:31;6.10;;;5.00;;
495;SDS011;39559;48.630;9.162;2023-01-29T08:33:57;6.85;;;6.15;;
495;SDS011;39559;48.630;9.162;2023-01-29T08:38:34;8.82;;;7.10;;
495;SDS011;39559;48.630;9.162;2023-01-29T08:41:00;7.13;;;6.43;;
495;SDS011;39559;48.630;9.162;2023-01-29T08:43:25;10.50;;;5.90;;
495;SDS011;39559;48.630;9.162;2023-01-29T08:45:51;6.50;;;5.40;;
495;SDS011;39559;48.630;9.162;2023-01-29T08:48:16;7.70;;;6.97;;
495;SDS011;39559;48.630;9.162;2023-01-29T08:50:42;6.40;;;5.80;;
495;SDS011;39559;48.630;9.162;2023-01-29T08:53:07;6.90;;;6.23;;
495;SDS011;39559;48.630;9.162;2023-01-29T08:55:37;6.82;;;6.15;;
495;SDS011;39559;48.630;9.162;2023-01-29T08:58:04;6.00;;;5.40;;
495;SDS011;39559;48.630;9.162;2023-01-29T09:02:50;8.00;;;7.25;;
495;SDS011;39559;48.630;9.162;2023-01-29T09:05:16;9.02;;;6.63;;
495;SDS011;39559;48.630;9.162;2023-01-29T09:07:42;8.37;;;6.37;;
495;SDS011;39559;48.630;9.162;2023-01-29T09:10:08;7.72;;;6.10;;
495;SDS011;39559;48.630;9.162;2023-01-29T09:12:34;10.73;;;7.10;;
495;SDS011;39559;48.630;9.162;2023-01-29T09:14:59;7.83;;;6.53;;
495;SDS011;39559;48.630;9.162;2023-01-29T09:17:25;9.27;;;6.77;;
495;SDS011;39559;48.630;9.162;2023-01-29T09:19:50;6.03;;;5.43;;
495;SDS011;39559;48.630;9.162;2023-01-29T09:22:17;10.05;;;7.28;;
495;SDS011;39559;48.630;9.162;2023-01-29T09:26:38;7.20;;;5.47;;
495;SDS011;39559;48.630;9.162;2023-01-29T09:29:04;7.30;;;6.00;;
495;SDS011;39559;48.630;9.162;2023-01-29T09:31:30;11.85;;;8.23;;
495;SDS011;39559;48.630;9.162;2023-01-29T09:33:55;6.70;;;6.00;;
495;SDS011;39559;48.630;9.162;2023-01-29T09:36:21;7.67;;;5.87;;
495;SDS011;39559;48.630;9.162;2023-01-29T09:38:46;7.30;;;5.77;;
495;SDS011;39559;48.630;9.162;2023-01-29T09:41:18;7.40;;;6.70;;
495;SDS011;39559;48.630;9.162;2023-01-29T09:44:01;8.07;;;6.80;;
495;SDS011;39559;48.630;9.162;2023-01-29T09:46:34;11.68;;;8.02;;
495;SDS011;39559;48.630;9.162;2023-01-29T09:50:40;8.43;;;6.22;;
495;SDS011;39559;48.630;9.162;2023-01-29T09:53:11;7.82;;;7.03;;
495;SDS011;39559;48.630;9.162;2023-01-29T09:55:49;6.95;;;6.25;;
495;SDS011;39559;48.630;9.162;2023-01-29T09:58:26;7.82;;;6.40;;
495;SDS011;39559;48.630;9.162;2023-01-29T10:01:02;7.10;;;6.22;;
495;SDS011;39559;48.630;9.162;2023-01-29T10:03:43;6.57;;;5.75;;
495;SDS011;39559;48.630;9.162;2023-01-29T10:25:39;6.47;;;5.07;;
495;SDS011;39559;48.630;9.162;2023-01-29T10:28:13;5.85;;;5.28;;
495;SDS011;39559;48.630;9.162;2023-01-29T10:31:03;7.60;;;5.15;;
495;SDS011;39559;48.630;9.162;2023-01-29T10:33:39;9.50;;;5.65;;
495;SDS011;39559;48.630;9.162;2023-01-29T10:36:06;7.13;;;5.20;;
495;SDS011;39559;48.630;9.162;2023-01-29T10:38:46;6.40;;;4.25;;
495;SDS011;39559;48.630;9.162;2023-01-29T10:44:01;7.90;;;5.53;;
495;SDS011;39559;48.630;9.162;2023-01-29T10:50:03;5.20;;;4.65;;
495;SDS011;39559;48.630;9.162;2023-01-29T11:02:46;5.68;;;4.38;;
495;SDS011;39559;48.630;9.162;2023-01-29T11:08:07;5.15;;;4.70;;
495;SDS011;39559;48.630;9.162;2023-01-29T11:10:44;4.72;;;4.32;;
495;SDS011;39559;48.630;9.162;2023-01-29T11:13:17;5.68;;;4.28;;
495;SDS011;39559;48.630;9.162;2023-01-29T11:15:43;4.90;;;4.17;;
495;SDS011;39559;48.630;9.162;2023-01-29T11:18:12;5.20;;;3.80;;
495;SDS011;39559;48.630;9.162;2023-01-29T11:20:43;5.07;;;4.50;;
495;SDS011;39559;48.630;9.162;2023-01-29T11:23:25;4.65;;;4.25;;
495;SDS011;39559;48.630;9.162;2023-01-29T11:26:49;4.13;;;3.42;;
495;SDS011;39559;48.630;9.162;2023-01-29T11:35:01;5.22;;;4.63;;
495;SDS011;39559;48.630;9.162;2023-01-29T11:37:36;5.13;;;4.72;;
495;SDS011;39559;48.630;9.162;2023-01-29T11:40:49;6.50;;;4.38;;
495;SDS011;39559;48.630;9.162;2023-01-29T11:42:58;5.60;;;4.68;;
495;SDS011;39559;48.630;9.162;2023-01-29T11:45:47;5.13;;;4.72;;
495;SDS011;39559;48.630;9.162;2023-01-29T11:50:53;4.95;;;4.55;;
495;SDS011;39559;48.630;9.162;2023-01-29T11:53:39;5.00;;;4.57;;
495;SDS011;39559;48.630;9.162;2023-01-29T11:56:28;5.93;;;4.40;;
495;SDS011;39559;48.630;9.162;2023-01-29T11:59:26;6.28;;;4.95;;
495;SDS011;39559;48.630;9.162;2023-01-29T12:02:17;7.57;;;5.03;;
495;SDS011;39559;48.630;9.162;2023-01-29T12:04:48;7.30;;;5.43;;
495;SDS011;39559;48.630;9.162;2023-01-29T12:07:15;5.45;;;4.90;;
495;SDS011;39559;48.630;9.162;2023-01-29T12:09:47;6.28;;;4.32;;
495;SDS011;39559;48.630;9.162;2023-01-29T12:15:01;5.22;;;4.72;;
495;SDS011;39559;48.630;9.162;2023-01-29T12:17:29;4.90;;;4.50;;
495;SDS011;39559;48.630;9.162;2023-01-29T12:20:03;4.45;;;4.03;;
495;SDS011;39559;48.630;9.162;2023-01-29T12:22:39;4.75;;;3.83;;
495;SDS011;39559;48.630;9.162;2023-01-29T12:33:59;4.85;;;3.85;;
495;SDS011;39559;48.630;9.162;2023-01-29T12:38:51;5.43;;;4.93;;
495;SDS011;39559;48.630;9.162;2023-01-29T12:44:06;5.20;;;4.70;;
495;SDS011;39559;48.630;9.162;2023-01-29T12:46:40;6.07;;;4.80;;
495;SDS011;39559;48.630;9.162;2023-01-29T12:49:11;5.22;;;4.82;;
495;SDS011;39559;48.630;9.162;2023-01-29T12:54:46;5.47;;;4.97;;
495;SDS011;39559;48.630;9.162;2023-01-29T12:57:37;3.85;;;3.55;;
495;SDS011;39559;48.630;9.162;2023-01-29T13:00:10;4.32;;;3.65;;
495;SDS011;39559;48.630;9.162;2023-01-29T13:08:26;7.07;;;3.70;;
495;SDS011;39559;48.630;9.162;2023-01-29T13:10:57;4.43;;;3.90;;
495;SDS011;39559;48.630;9.162;2023-01-29T13:13:30;4.55;;;4.00;;
495;SDS011;39559;48.630;9.162;2023-01-29T13:16:11;4.50;;;4.10;;
495;SDS011;39559;48.630;9.162;2023-01-29T13:18:43;4.20;;;3.60;;
495;SDS011;39559;48.630;9.162;2023-01-29T13:21:16;3.72;;;3.42;;
495;SDS011;39559;48.630;9.162;2023-01-29T13:23:44;4.85;;;4.30;;
495;SDS011;39559;48.630;9.162;2023-01-29T13:26:54;5.65;;;4.68;;
495;SDS011;39559;48.630;9.162;2023-01-29T13:31:56;5.85;;;4.50;;
495;SDS011;39559;48.630;9.162;2023-01-29T13:34:28;5.75;;;4.38;;
495;SDS011;39559;48.630;9.162;2023-01-29T13:36:57;5.45;;;4.43;;
495;SDS011;39559;48.630;9.162;2023-01-29T13:39:37;4.32;;;3.92;;
495;SDS011;39559;48.630;9.162;2023-01-29T13:42:20;8.65;;;4.80;;
495;SDS011;39559;48.630;9.162;2023-01-29T13:44:49;4.40;;;3.25;;
495;SDS011;39559;48.630;9.162;2023-01-29T13:47:20;4.65;;;4.05;;
495;SDS011;39559;48.630;9.162;2023-01-29T13:50:56;4.30;;;3.90;;
495;SDS011;39559;48.630;9.162;2023-01-29T13:53:26;6.82;;;4.80;;
495;SDS011;39559;48.630;9.162;2023-01-29T13:59:05;4.53;;;4.13;;
495;SDS011;39559;48.630;9.162;2023-01-29T14:04:23;5.50;;;4.40;;
495;SDS011;39559;48.630;9.162;2023-01-29T14:06:56;5.47;;;4.00;;
495;SDS011;39559;48.630;9.162;2023-01-29T14:09:30;7.63;;;4.00;;
495;SDS011;39559;48.630;9.162;2023-01-29T14:12:02;5.60;;;4.35;;
495;SDS011;39559;48.630;9.162;2023-01-29T14:17:22;4.40;;;4.00;;
495;SDS011;39559;48.630;9.162;2023-01-29T14:19:51;5.82;;;5.30;;
495;SDS011;39559;48.630;9.162;2023-01-29T14:22:22;5.55;;;4.40;;
495;SDS011;39559;48.630;9.162;2023-01-29T14:24:54;9.15;;;6.13;;
495;SDS011;39559;48.630;9.162;2023-01-29T14:27:24;10.65;;;6.30;;
495;SDS011;39559;48.630;9.162;2023-01-29T14:29:50;6.03;;;5.43;;
495;SDS011;39559;48.630;9.162;2023-01-29T14:32:23;5.85;;;5.07;;
495;SDS011;39559;48.630;9.162;2023-01-29T14:34:51;5.10;;;4.10;;
495;SDS011;39559;48.630;9.162;2023-01-29T14:38:58;8.00;;;6.05;;
495;SDS011;39559;48.630;9.162;2023-01-29T14:41:30;7.97;;;6.63;;
495;SDS011;39559;48.630;9.162;2023-01-29T14:47:02;7.28;;;5.18;;
495;SDS011;39559;48.630;9.162;2023-01-29T14:49:46;8.57;;;6.60;;
495;SDS011;39559;48.630;9.162;2023-01-29T14:52:16;8.02;;;6.50;;
495;SDS011;39559;48.630;9.162;2023-01-29T14:54:45;10.25;;;6.07;;
495;SDS011;39559;48.630;9.162;2023-01-29T14:57:14;8.25;;;6.10;;
495;SDS011;39559;48.630;9.162;2023-01-29T15:02:59;8.07;;;6.07;;
495;SDS011;39559;48.630;9.162;2023-01-29T15:05:28;9.52;;;6.70;;
495;SDS011;39559;48.630;9.162;2023-01-29T15:08:02;11.18;;;8.18;;
495;SDS011;39559;48.630;9.162;2023-01-29T15:10:54;7.82;;;6.43;;
495;SDS011;39559;48.630;9.162;2023-01-29T15:13:51;10.15;;;6.85;;
495;SDS011;39559;48.630;9.162;2023-01-29T15:16:24;6.88;;;5.70;;
495;SDS011;39559;48.630;9.162;2023-01-29T15:18:55;6.68;;;5.97;;
495;SDS011;39559;48.630;9.162;2023-01-29T15:21:36;10.25;;;7.57;;
495;SDS011;39559;48.630;9.162;2023-01-29T15:24:05;7.37;;;6.63;;
495;SDS011;39559;48.630;9.162;2023-01-29T15:27:00;9.02;;;6.47;;
495;SDS011;39559;48.630;9.162;2023-01-29T15:29:26;10.43;;;6.82;;
495;SDS011;39559;48.630;9.162;2023-01-29T15:31:53;10.55;;;6.95;;
495;SDS011;39559;48.630;9.162;2023-01-29T15:34:20;8.50;;;6.68;;
495;SDS011;39559;48.630;9.162;2023-01-29T15:36:46;10.37;;;6.70;;
495;SDS011;39559;48.630;9.162;2023-01-29T15:39:14;8.48;;;6.32;;
495;SDS011;39559;48.630;9.162;2023-01-29T15:41:45;8.65;;;6.70;;
495;SDS011;39559;48.630;9.162;2023-01-29T15:44:12;8.90;;;6.90;;
495;SDS011;39559;48.630;9.162;2023-01-29T15:46:52;8.57;;;6.95;;
495;SDS011;39559;48.630;9.162;2023-01-29T15:51:01;7.75;;;5.55;;
495;SDS011;39559;48.630;9.162;2023-01-29T15:53:33;7.18;;;5.72;;
495;SDS011;39559;48.630;9.162;2023-01-29T15:56:00;6.10;;;5.25;;
495;SDS011;39559;48.630;9.162;2023-01-29T15:58:29;8.13;;;6.10;;
495;SDS011;39559;48.630;9.162;2023-01-29T16:00:56;7.43;;;5.80;;
495;SDS011;39559;48.630;9.162;2023-01-29T16:03:25;7.85;;;6.18;;
495;SDS011;39559;48.630;9.162;2023-01-29T16:05:54;6.15;;;5.55;;
495;SDS011;39559;48.630;9.162;2023-01-29T16:08:21;11.90;;;8.00;;
495;SDS011;39559;48.630;9.162;2023-01-29T16:10:50;12.55;;;7.72;;
495;SDS011;39559;48.630;9.162;2023-01-29T16:15:02;10.55;;;7.20;;
495;SDS011;39559;48.630;9.162;2023-01-29T16:17:30;10.95;;;7.82;;
495;SDS011;39559;48.630;9.162;2023-01-29T16:20:02;11.40;;;8.10;;
495;SDS011;39559;48.630;9.162;2023-01-29T16:22:33;10.18;;;7.45;;
495;SDS011;39559;48.630;9.162;2023-01-29T16:25:04;7.53;;;6.72;;
495;SDS011;39559;48.630;9.162;2023-01-29T16:27:36;9.48;;;6.80;;
495;SDS011;39559;48.630;9.162;2023-01-29T16:30:03;8.50;;;6.90;;
495;SDS011;39559;48.630;9.162;2023-01-29T16:32:29;9.57;;;7.55;;
495;SDS011;39559;48.630;9.162;2023-01-29T16:34:56;9.67;;;6.93;;
495;SDS011;39559;48.630;9.162;2023-01-29T16:39:13;9.35;;;7.00;;
495;SDS011;39559;48.630;9.162;2023-01-29T16:42:39;13.05;;;7.15;;
495;SDS011;39559;48.630;9.162;2023-01-29T16:47:26;10.73;;;7.40;;
495;SDS011;39559;48.630;9.162;2023-01-29T16:49:54;10.10;;;8.07;;
495;SDS011;39559;48.630;9.162;2023-01-29T16:52:26;10.35;;;7.43;;
495;SDS011;39559;48.630;9.162;2023-01-29T16:55:00;9.00;;;6.60;;
495;SDS011;39559;48.630;9.162;2023-01-29T16:57:40;7.93;;;6.90;;
495;SDS011;39559;48.630;9.162;2023-01-29T17:00:19;12.85;;;8.02;;
495;SDS011;39559;48.630;9.162;2023-01-29T17:03:04;8.38;;;6.97;;
495;SDS011;39559;48.630;9.162;2023-01-29T17:05:32;10.52;;;8.10;;
495;SDS011;39559;48.630;9.162;2023-01-29T17:08:00;10.80;;;7.15;;
495;SDS011;39559;48.630;9.162;2023-01-29T17:10:26;8.35;;;6.75;;
495;SDS011;39559;48.630;9.162;2023-01-29T17:15:29;8.43;;;6.32;;
495;SDS011;39559;48.630;9.162;2023-01-29T17:17:57;11.15;;;7.57;;
495;SDS011;39559;48.630;9.162;2023-01-29T17:20:23;8.73;;;6.90;;
495;SDS011;39559;48.630;9.162;2023-01-29T17:22:48;8.93;;;6.90;;
495;SDS011;39559;48.630;9.162;2023-01-29T17:27:05;9.57;;;6.95;;
495;SDS011;39559;48.630;9.162;2023-01-29T17:29:30;8.97;;;7.23;;
495;SDS011;39559;48.630;9.162;2023-01-29T17:31:56;11.93;;;8.30;;
495;SDS011;39559;48.630;9.162;2023-01-29T17:34:24;8.93;;;7.55;;
495;SDS011;39559;48.630;9.162;2023-01-29T17:36:50;8.90;;;7.53;;
495;SDS011;39559;48.630;9.162;2023-01-29T17:39:19;9.97;;;7.23;;
495;SDS011;39559;48.630;9.162;2023-01-29T17:41:50;9.85;;;8.07;;
495;SDS011;39559;48.630;9.162;2023-01-29T17:44:17;11.18;;;7.47;;
495;SDS011;39559;48.630;9.162;2023-01-29T17:46:43;11.25;;;8.23;;
495;SDS011;39559;48.630;9.162;2023-01-29T17:51:11;11.73;;;7.75;;
495;SDS011;39559;48.630;9.162;2023-01-29T17:53:39;11.68;;;7.53;;
495;SDS011;39559;48.630;9.162;2023-01-29T17:56:09;10.00;;;7.18;;
495;SDS011;39559;48.630;9.162;2023-01-29T17:58:39;11.80;;;7.68;;
495;SDS011;39559;48.630;9.162;2023-01-29T18:01:05;9.83;;;7.40;;
495;SDS011;39559;48.630;9.162;2023-01-29T18:03:30;9.30;;;6.80;;
495;SDS011;39559;48.630;9.162;2023-01-29T18:05:56;8.13;;;6.90;;
495;SDS011;39559;48.630;9.162;2023-01-29T18:08:27;8.45;;;6.47;;
495;SDS011;39559;48.630;9.162;2023-01-29T18:10:55;9.50;;;6.70;;
495;SDS011;39559;48.630;9.162;2023-01-29T18:15:09;9.18;;;7.00;;
495;SDS011;39559;48.630;9.162;2023-01-29T18:17:35;8.85;;;7.07;;
495;SDS011;39559;48.630;9.162;2023-01-29T18:20:01;9.40;;;7.70;;
495;SDS011;39559;48.630;9.162;2023-01-29T18:22:27;12.00;;;7.53;;
495;SDS011;39559;48.630;9.162;2023-01-29T18:24:52;10.23;;;7.63;;
495;SDS011;39559;48.630;9.162;2023-01-29T18:27:18;8.43;;;6.83;;
495;SDS011;39559;48.630;9.162;2023-01-29T18:29:44;8.10;;;7.30;;
495;SDS011;39559;48.630;9.162;2023-01-29T18:32:09;8.80;;;6.80;;
495;SDS011;39559;48.630;9.162;2023-01-29T18:34:36;12.40;;;8.65;;
495;SDS011;39559;48.630;9.162;2023-01-29T18:39:09;9.20;;;7.10;;
495;SDS011;39559;48.630;9.162;2023-01-29T18:41:35;10.70;;;7.83;;
495;SDS011;39559;48.630;9.162;2023-01-29T18:44:00;8.73;;;7.03;;
495;SDS011;39559;48.630;9.162;2023-01-29T18:46:26;8.90;;;6.70;;
495;SDS011;39559;48.630;9.162;2023-01-29T18:48:51;10.17;;;7.60;;
495;SDS011;39559;48.630;9.162;2023-01-29T18:51:17;9.43;;;7.23;;
495;SDS011;39559;48.630;9.162;2023-01-29T18:53:42;10.60;;;7.33;;